Time;durP1;ratioP1;P1;durP2;ratioP2;P2;SDS_P1;SDS_P2;PMS_P1;PMS_P2;Temp;Humidity;BMP_temperature;BMP_pressure;BME280_temperature;BME280_humidity;BME280_pressure;Samples;Min_cycle;Max_cycle;Signal;HPM_P1;HPM_P2
2022/01/25 00:08:18;;;;;;;;;;;;;;;;;;1003693;29;989;-35
2022/01/25 00:09:49;;;;;;;;;;;;;;;;;;1003368;29;1027;-33
2022/01/25 00:10:38;;;;;;;;;;;;;;;;;;1003305;29;1110;-33
2022/01/25 00:24:14;;;;;;;;;;;;;;;;;;1003497;29;1052;-33
2022/01/25 00:24:20;;;;;;;;;;;;;;;;;;1007139;29;1515;-34
2022/01/25 00:25:30;;;;;;;;;;;;;;;;;;1006963;29;919;-33
2022/01/25 00:26:35;;;;;;;;;;;;;;;;;;1006430;29;1121;-33
2022/01/25 00:28:25;;;;;;;;;;;;;;;;;;1007194;29;957;-33
2022/01/25 00:30:00;;;;;;;;;;;;;;;;;;998936;29;1325;-33
2022/01/25 00:30:44;;;;;;;;;;;;;;;;;;999599;29;879;-33
2022/01/25 00:31:16;;;;;;;;;;;;;;;;;;999661;29;926;-32
2022/01/25 00:31:47;;;;;;;;;;;;;;;;;;999703;29;959;-33
2022/01/25 00:32:17;;;;;;;;;;;;;;;;;;999610;29;831;-33
2022/01/25 00:32:47;;;;;;;;;;;;;;;;;;999606;29;939;-33
2022/01/25 00:33:18;;;;;;;;;;;;;;;;;;999903;29;919;-34
2022/01/25 00:33:52;;;;;;;;;;;;;;;;;;999373;29;935;-33
2022/01/25 00:34:23;;;;;;;;;;;;;;;;;;999777;29;982;-33
2022/01/25 00:34:53;;;;;;;;;;;;;;;;;;999637;29;942;-33
2022/01/25 00:35:24;;;;;;;;;;;;;;;;;;999700;29;951;-33
2022/01/25 00:35:54;;;;;;;;;;;;;;;;;;999725;29;1073;-34
2022/01/25 00:36:26;;;;;;;;;;;;;;;;;;999550;29;881;-34
2022/01/25 00:36:56;;;;;;;;;;;;;;;;;;999817;29;1154;-34
2022/01/25 00:37:27;;;;;;;;;;;;;;;;;;999649;29;1299;-33
2022/01/25 00:37:57;;;;;;;;;;;;;;;;;;999527;29;809;-33
2022/01/25 00:38:27;;;;;;;;;;;;;;;;;;999778;29;939;-34
2022/01/25 00:38:58;;;;;;;;;;;;;;;;;;999523;29;884;-33
2022/01/25 00:39:28;;;;;;;;;;;;;;;;;;999734;29;998;-33
2022/01/25 00:39:59;;;;;;;;;;;;;;;;;;999600;29;896;-33
2022/01/25 00:40:29;;;;;;;;;;;;;;;;;;999543;29;987;-33
2022/01/25 00:40:59;;;;;;;;;;;;;;;;;;999777;29;958;-34
2022/01/25 00:41:30;;;;;;;;;;;;;;;;;;999577;29;983;-33
2022/01/25 00:42:00;;;;;;;;;;;;;;;;;;999577;29;1991;-33
2022/01/25 00:42:30;;;;;;;;;;;;;;;;;;999354;29;1010;-34
2022/01/25 00:43:01;;;;;;;;;;;;;;;;;;995498;29;1002;-33
2022/01/25 00:43:31;;;;;;;;;;;;;;;;;;995776;29;1001;-33
2022/01/25 00:44:02;;;;;;;;;;;;;;;;;;995394;29;959;-33
2022/01/25 00:44:36;;;;;;;;;;;;;;;;;;995776;29;1771;-33
2022/01/25 00:45:10;;;;;;;;;;;;;;;;;;999529;29;912;-33
2022/01/25 00:45:40;;;;;;;;;;;;;;;;;;999567;29;923;-33
2022/01/25 00:46:12;;;;;;;;;;;;;;;;;;999698;29;1001;-33
2022/01/25 00:46:42;;;;;;;;;;;;;;;;;;999397;29;936;-34
2022/01/25 00:47:12;;;;;;;;;;;;;;;;;;999685;29;942;-33
2022/01/25 00:47:47;;;;;;;;;;;;;;;;;;999641;29;1006;-33
2022/01/25 00:48:30;;;;;;;;;;;;;;;;;;999544;29;950;-33
2022/01/25 00:49:03;;;;;;;;;;;;;;;;;;999626;29;974;-33
2022/01/25 00:49:36;;;;;;;;;;;;;;;;;;999816;29;954;-33
2022/01/25 00:50:13;;;;;;;;;;;;;;;;;;999454;29;841;-34
2022/01/25 00:50:45;;;;;;;;;;;;;;;;;;999560;29;910;-33
2022/01/25 00:53:54;;;;;;;;;;;;;;;;;;999515;29;1034;-34
2022/01/25 00:54:58;;;;;;;;;;;;;;;;;;999509;29;986;-33
2022/01/25 00:55:28;;;;;;;;;;;;;;;;;;999774;29;940;-32
2022/01/25 00:55:58;;;;;;;;;;;;;;;;;;999501;29;904;-33
2022/01/25 00:56:31;;;;;;;;;;;;;;;;;;999687;29;923;-33
2022/01/25 00:57:01;;;;;;;;;;;;;;;;;;999401;29;966;-34
2022/01/25 00:57:32;;;;;;;;;;;;;;;;;;999617;29;808;-33
2022/01/25 00:58:02;;;;;;;;;;;;;;;;;;999588;29;1074;-33
2022/01/25 00:58:32;;;;;;;;;;;;;;;;;;995503;29;873;-32
2022/01/25 00:59:04;;;;;;;;;;;;;;;;;;995360;29;968;-33
2022/01/25 00:59:35;;;;;;;;;;;;;;;;;;995700;29;948;-33
2022/01/25 01:00:06;;;;;;;;;;;;;;;;;;995592;29;785;-34
2022/01/25 01:00:37;;;;;;;;;;;;;;;;;;995687;29;947;-33
2022/01/25 01:01:07;;;;;;;;;;;;;;;;;;995304;29;793;-33
2022/01/25 01:01:38;;;;;;;;;;;;;;;;;;997423;29;1063;-32
2022/01/25 01:02:11;;;;;;;;;;;;;;;;;;1002774;29;1982;-33
2022/01/25 01:02:42;;;;;;;;;;;;;;;;;;1003203;29;789;-33
2022/01/25 01:03:12;;;;;;;;;;;;;;;;;;1003402;29;977;-33
2022/01/25 01:03:43;;;;;;;;;;;;;;;;;;1003281;29;832;-33
2022/01/25 01:04:13;;;;;;;;;;;;;;;;;;1003248;29;1016;-33
2022/01/25 01:04:44;;;;;;;;;;;;;;;;;;1003475;29;887;-33
2022/01/25 01:05:14;;;;;;;;;;;;;;;;;;1003328;29;948;-34
2022/01/25 01:05:46;;;;;;;;;;;;;;;;;;1003434;29;847;-32
2022/01/25 01:06:17;;;;;;;;;;;;;;;;;;1003183;29;920;-32
2022/01/25 01:06:47;;;;;;;;;;;;;;;;;;1003390;29;954;-34
2022/01/25 01:07:18;;;;;;;;;;;;;;;;;;1003339;29;951;-32
2022/01/25 01:07:48;;;;;;;;;;;;;;;;;;1003336;29;994;-33
2022/01/25 01:08:19;;;;;;;;;;;;;;;;;;1003402;29;969;-34
2022/01/25 01:08:50;;;;;;;;;;;;;;;;;;1003320;29;868;-33
2022/01/25 01:09:21;;;;;;;;;;;;;;;;;;1003352;29;1045;-33
2022/01/25 01:09:53;;;;;;;;;;;;;;;;;;1003389;29;907;-33
2022/01/25 01:10:26;;;;;;;;;;;;;;;;;;1003262;29;942;-33
2022/01/25 01:10:58;;;;;;;;;;;;;;;;;;1003516;29;854;-33
2022/01/25 01:11:36;;;;;;;;;;;;;;;;;;1003268;29;912;-33
2022/01/25 01:12:13;;;;;;;;;;;;;;;;;;1003069;29;896;-33
2022/01/25 01:14:13;;;;;;;;;;;;;;;;;;1003273;29;883;-33
2022/01/25 01:14:59;;;;;;;;;;;;;;;;;;1003182;29;967;-33
2022/01/25 01:15:50;;;;;;;;;;;;;;;;;;1003297;29;802;-33
2022/01/25 01:29:03;;;;;;;;;;;;;;;;;;1003369;29;927;-33
2022/01/25 01:30:54;;;;;;;;;;;;;;;;;;993254;29;1244;-33
2022/01/25 01:34:15;;;;;;;;;;;;;;;;;;994963;29;975;-33
2022/01/25 01:35:50;;;;;;;;;;;;;;;;;;999617;29;994;-34
2022/01/25 01:38:11;;;;;;;;;;;;;;;;;;991270;29;1062;-35
2022/01/25 01:39:17;;;;;;;;;;;;;;;;;;997317;29;988;-34
2022/01/25 01:40:07;;;;;;;;;;;;;;;;;;999287;29;1572;-34
2022/01/25 01:42:56;;;;;;;;;;;;;;;;;;995336;29;999;-34
2022/01/25 01:43:59;;;;;;;;;;;;;;;;;;995358;29;911;-34
2022/01/25 01:44:40;;;;;;;;;;;;;;;;;;999136;29;904;-35
2022/01/25 01:45:28;;;;;;;;;;;;;;;;;;995317;29;1546;-34
2022/01/25 01:46:42;;;;;;;;;;;;;;;;;;995236;29;881;-33
2022/01/25 01:47:22;;;;;;;;;;;;;;;;;;999539;29;1021;-34
2022/01/25 01:48:00;;;;;;;;;;;;;;;;;;999344;29;866;-33
2022/01/25 01:48:34;;;;;;;;;;;;;;;;;;999648;29;990;-33
2022/01/25 01:49:06;;;;;;;;;;;;;;;;;;999419;29;911;-33
2022/01/25 01:49:44;;;;;;;;;;;;;;;;;;999334;29;939;-34
2022/01/25 01:50:27;;;;;;;;;;;;;;;;;;999479;29;951;-34
2022/01/25 01:51:06;;;;;;;;;;;;;;;;;;999738;29;955;-33
2022/01/25 01:51:41;;;;;;;;;;;;;;;;;;999322;29;928;-33
2022/01/25 01:52:12;;;;;;;;;;;;;;;;;;999400;29;963;-34
2022/01/25 01:52:43;;;;;;;;;;;;;;;;;;999358;29;927;-33
2022/01/25 01:53:13;;;;;;;;;;;;;;;;;;999444;29;892;-34
2022/01/25 01:53:44;;;;;;;;;;;;;;;;;;999338;29;963;-33
2022/01/25 01:54:15;;;;;;;;;;;;;;;;;;999499;29;971;-34
2022/01/25 01:54:45;;;;;;;;;;;;;;;;;;999268;29;979;-33
2022/01/25 01:55:15;;;;;;;;;;;;;;;;;;999688;29;1160;-34
2022/01/25 01:55:46;;;;;;;;;;;;;;;;;;999151;29;904;-34
2022/01/25 01:56:16;;;;;;;;;;;;;;;;;;999528;29;1153;-33
2022/01/25 01:56:47;;;;;;;;;;;;;;;;;;999445;29;948;-34
2022/01/25 01:57:17;;;;;;;;;;;;;;;;;;999414;29;860;-33
2022/01/25 01:57:49;;;;;;;;;;;;;;;;;;999371;29;898;-34
2022/01/25 01:58:19;;;;;;;;;;;;;;;;;;999363;29;1037;-34
2022/01/25 01:58:54;;;;;;;;;;;;;;;;;;999424;29;1049;-33
2022/01/25 01:59:27;;;;;;;;;;;;;;;;;;999239;29;907;-34
2022/01/25 01:59:58;;;;;;;;;;;;;;;;;;998934;29;979;-33
2022/01/25 02:00:31;;;;;;;;;;;;;;;;;;999239;29;998;-33
2022/01/25 02:01:03;;;;;;;;;;;;;;;;;;999163;29;951;-33
2022/01/25 02:01:34;;;;;;;;;;;;;;;;;;999357;29;935;-33
2022/01/25 02:02:05;;;;;;;;;;;;;;;;;;999397;29;1888;-34
2022/01/25 02:02:35;;;;;;;;;;;;;;;;;;999207;29;918;-33
2022/01/25 02:03:06;;;;;;;;;;;;;;;;;;999466;29;1073;-33
2022/01/25 02:03:36;;;;;;;;;;;;;;;;;;999430;29;896;-33
2022/01/25 02:04:08;;;;;;;;;;;;;;;;;;999350;29;847;-33
2022/01/25 02:04:38;;;;;;;;;;;;;;;;;;999542;29;949;-33
2022/01/25 02:05:08;;;;;;;;;;;;;;;;;;999410;29;828;-33
2022/01/25 02:05:39;;;;;;;;;;;;;;;;;;999402;29;1157;-33
2022/01/25 02:06:09;;;;;;;;;;;;;;;;;;998972;29;1339;-34
2022/01/25 02:06:40;;;;;;;;;;;;;;;;;;998888;29;879;-34
2022/01/25 02:07:10;;;;;;;;;;;;;;;;;;999339;29;999;-33
2022/01/25 02:07:41;;;;;;;;;;;;;;;;;;998935;29;1031;-33
2022/01/25 02:08:11;;;;;;;;;;;;;;;;;;999384;29;963;-33
2022/01/25 02:08:42;;;;;;;;;;;;;;;;;;999500;29;935;-33
2022/01/25 02:09:12;;;;;;;;;;;;;;;;;;999415;29;842;-33
2022/01/25 02:09:43;;;;;;;;;;;;;;;;;;999534;29;1622;-33
2022/01/25 02:10:13;;;;;;;;;;;;;;;;;;999236;29;1025;-32
2022/01/25 02:10:44;;;;;;;;;;;;;;;;;;999381;29;1041;-33
2022/01/25 02:11:14;;;;;;;;;;;;;;;;;;999520;29;892;-33
2022/01/25 02:11:45;;;;;;;;;;;;;;;;;;999276;29;944;-33
2022/01/25 02:12:16;;;;;;;;;;;;;;;;;;999487;29;994;-33
2022/01/25 02:12:49;;;;;;;;;;;;;;;;;;999341;29;986;-33
2022/01/25 02:13:19;;;;;;;;;;;;;;;;;;999388;29;1070;-33
2022/01/25 02:13:50;;;;;;;;;;;;;;;;;;999524;29;971;-33
2022/01/25 02:14:20;;;;;;;;;;;;;;;;;;999259;29;847;-33
2022/01/25 02:14:52;;;;;;;;;;;;;;;;;;999533;29;1340;-33
2022/01/25 02:15:25;;;;;;;;;;;;;;;;;;999375;29;978;-32
2022/01/25 02:15:57;;;;;;;;;;;;;;;;;;999296;29;827;-33
2022/01/25 02:16:40;;;;;;;;;;;;;;;;;;999675;29;994;-33
2022/01/25 02:17:27;;;;;;;;;;;;;;;;;;999500;29;950;-33
2022/01/25 02:22:39;;;;;;;;;;;;;;;;;;1001794;29;1080;-32
2022/01/25 02:23:17;;;;;;;;;;;;;;;;;;1003209;29;962;-32
2022/01/25 02:23:48;;;;;;;;;;;;;;;;;;1003031;29;999;-34
2022/01/25 02:24:18;;;;;;;;;;;;;;;;;;1003285;29;964;-34
2022/01/25 02:24:48;;;;;;;;;;;;;;;;;;1003181;29;959;-33
2022/01/25 02:25:19;;;;;;;;;;;;;;;;;;1003143;29;966;-33
2022/01/25 02:25:50;;;;;;;;;;;;;;;;;;1003357;29;974;-33
2022/01/25 02:26:21;;;;;;;;;;;;;;;;;;1003034;29;903;-33
2022/01/25 02:26:55;;;;;;;;;;;;;;;;;;1003352;29;903;-34
2022/01/25 02:27:25;;;;;;;;;;;;;;;;;;1003246;29;971;-33
2022/01/25 02:27:55;;;;;;;;;;;;;;;;;;1003004;29;916;-33
2022/01/25 02:28:31;;;;;;;;;;;;;;;;;;1003402;29;931;-34
2022/01/25 02:29:01;;;;;;;;;;;;;;;;;;1003119;29;824;-34
2022/01/25 02:29:32;;;;;;;;;;;;;;;;;;1003248;29;986;-34
2022/01/25 02:30:02;;;;;;;;;;;;;;;;;;1002758;29;1179;-33
2022/01/25 02:30:33;;;;;;;;;;;;;;;;;;999170;29;817;-33
2022/01/25 02:31:04;;;;;;;;;;;;;;;;;;999586;29;955;-33
2022/01/25 02:31:34;;;;;;;;;;;;;;;;;;999193;29;896;-35
2022/01/25 02:32:05;;;;;;;;;;;;;;;;;;999440;29;939;-33
2022/01/25 02:32:36;;;;;;;;;;;;;;;;;;999378;29;955;-34
2022/01/25 02:33:06;;;;;;;;;;;;;;;;;;999321;29;865;-34
2022/01/25 02:33:36;;;;;;;;;;;;;;;;;;999470;29;954;-33
2022/01/25 02:34:07;;;;;;;;;;;;;;;;;;999257;29;978;-33
2022/01/25 02:34:37;;;;;;;;;;;;;;;;;;999281;29;1231;-33
2022/01/25 02:35:08;;;;;;;;;;;;;;;;;;999527;29;1007;-33
2022/01/25 02:35:40;;;;;;;;;;;;;;;;;;999160;29;959;-33
2022/01/25 02:36:26;;;;;;;;;;;;;;;;;;999581;29;1088;-33
2022/01/25 02:37:00;;;;;;;;;;;;;;;;;;999375;29;935;-33
2022/01/25 02:37:31;;;;;;;;;;;;;;;;;;999496;29;876;-33
2022/01/25 02:38:02;;;;;;;;;;;;;;;;;;999125;29;929;-33
2022/01/25 02:38:33;;;;;;;;;;;;;;;;;;999506;29;1061;-34
2022/01/25 02:39:03;;;;;;;;;;;;;;;;;;999511;29;959;-33
2022/01/25 02:39:35;;;;;;;;;;;;;;;;;;1000142;29;949;-33
2022/01/25 02:40:07;;;;;;;;;;;;;;;;;;999969;29;888;-34
2022/01/25 02:40:37;;;;;;;;;;;;;;;;;;1003426;29;1285;-34
2022/01/25 02:41:07;;;;;;;;;;;;;;;;;;1003656;29;1017;-33
2022/01/25 02:41:38;;;;;;;;;;;;;;;;;;1003446;29;859;-33
2022/01/25 02:42:09;;;;;;;;;;;;;;;;;;1003439;29;1900;-33
2022/01/25 02:42:39;;;;;;;;;;;;;;;;;;999891;29;1026;-34
2022/01/25 02:43:12;;;;;;;;;;;;;;;;;;996071;29;882;-34
2022/01/25 02:43:45;;;;;;;;;;;;;;;;;;995977;29;947;-33
2022/01/25 02:44:23;;;;;;;;;;;;;;;;;;995811;29;931;-33
2022/01/25 02:44:53;;;;;;;;;;;;;;;;;;997501;29;995;-33
2022/01/25 02:45:31;;;;;;;;;;;;;;;;;;1000318;29;855;-33
2022/01/25 02:48:55;;;;;;;;;;;;;;;;;;1000051;29;994;-33
2022/01/25 02:49:26;;;;;;;;;;;;;;;;;;1000145;29;892;-33
2022/01/25 02:49:57;;;;;;;;;;;;;;;;;;999857;29;958;-33
2022/01/25 02:50:28;;;;;;;;;;;;;;;;;;1000067;29;994;-33
2022/01/25 02:50:59;;;;;;;;;;;;;;;;;;999909;29;936;-33
2022/01/25 02:51:38;;;;;;;;;;;;;;;;;;1000186;29;964;-33
2022/01/25 02:52:09;;;;;;;;;;;;;;;;;;1000043;29;867;-33
2022/01/25 02:52:39;;;;;;;;;;;;;;;;;;999702;29;916;-33
2022/01/25 02:53:10;;;;;;;;;;;;;;;;;;1000198;29;953;-34
2022/01/25 02:53:40;;;;;;;;;;;;;;;;;;1000009;29;769;-33
2022/01/25 02:54:11;;;;;;;;;;;;;;;;;;999906;29;1077;-33
2022/01/25 02:54:41;;;;;;;;;;;;;;;;;;1000097;29;1078;-34
2022/01/25 02:55:12;;;;;;;;;;;;;;;;;;999944;29;943;-34
2022/01/25 02:55:42;;;;;;;;;;;;;;;;;;1000175;29;959;-33
2022/01/25 02:56:13;;;;;;;;;;;;;;;;;;999938;29;907;-33
2022/01/25 02:56:45;;;;;;;;;;;;;;;;;;999981;29;964;-33
2022/01/25 02:57:16;;;;;;;;;;;;;;;;;;1000040;29;907;-33
2022/01/25 02:57:47;;;;;;;;;;;;;;;;;;1000022;29;860;-33
2022/01/25 02:58:17;;;;;;;;;;;;;;;;;;999997;29;860;-34
2022/01/25 02:58:48;;;;;;;;;;;;;;;;;;999991;29;938;-34
2022/01/25 02:59:19;;;;;;;;;;;;;;;;;;999915;29;1073;-33
2022/01/25 02:59:49;;;;;;;;;;;;;;;;;;1000120;29;1189;-33
2022/01/25 03:00:20;;;;;;;;;;;;;;;;;;999888;29;833;-33
2022/01/25 03:00:50;;;;;;;;;;;;;;;;;;1000064;29;1108;-33
2022/01/25 03:01:21;;;;;;;;;;;;;;;;;;999964;29;872;-33
2022/01/25 03:01:51;;;;;;;;;;;;;;;;;;999993;29;979;-33
2022/01/25 03:02:22;;;;;;;;;;;;;;;;;;1002472;29;1923;-33
2022/01/25 03:02:52;;;;;;;;;;;;;;;;;;1003806;29;1008;-33
2022/01/25 03:03:22;;;;;;;;;;;;;;;;;;1003802;29;1061;-33
2022/01/25 03:03:53;;;;;;;;;;;;;;;;;;1003747;29;753;-34
2022/01/25 03:04:24;;;;;;;;;;;;;;;;;;1003827;29;951;-33
2022/01/25 03:04:54;;;;;;;;;;;;;;;;;;1003770;29;970;-33
2022/01/25 03:05:25;;;;;;;;;;;;;;;;;;1003748;29;938;-33
2022/01/25 03:05:55;;;;;;;;;;;;;;;;;;1003849;29;939;-33
2022/01/25 03:06:25;;;;;;;;;;;;;;;;;;1003764;29;852;-35
2022/01/25 03:06:56;;;;;;;;;;;;;;;;;;1007271;29;949;-33
2022/01/25 03:07:26;;;;;;;;;;;;;;;;;;1007201;29;1005;-33
2022/01/25 03:07:57;;;;;;;;;;;;;;;;;;1007265;29;922;-33
2022/01/25 03:08:28;;;;;;;;;;;;;;;;;;1007331;29;885;-33
2022/01/25 03:08:58;;;;;;;;;;;;;;;;;;1003760;29;941;-33
2022/01/25 03:09:29;;;;;;;;;;;;;;;;;;1007284;29;1302;-33
2022/01/25 03:10:00;;;;;;;;;;;;;;;;;;1007043;29;965;-33
2022/01/25 03:10:34;;;;;;;;;;;;;;;;;;1007434;29;835;-33
2022/01/25 03:11:05;;;;;;;;;;;;;;;;;;1006708;29;965;-33
2022/01/25 03:11:35;;;;;;;;;;;;;;;;;;1003716;29;858;-33
2022/01/25 03:12:07;;;;;;;;;;;;;;;;;;1003735;29;843;-33
2022/01/25 03:12:48;;;;;;;;;;;;;;;;;;1003683;29;926;-34
2022/01/25 03:13:23;;;;;;;;;;;;;;;;;;1003581;29;966;-33
2022/01/25 03:13:57;;;;;;;;;;;;;;;;;;1003673;29;975;-33
2022/01/25 03:14:31;;;;;;;;;;;;;;;;;;1003914;29;978;-33
2022/01/25 03:15:56;;;;;;;;;;;;;;;;;;1003655;29;1228;-33
2022/01/25 03:17:23;;;;;;;;;;;;;;;;;;1003657;29;903;-33
2022/01/25 03:17:25;;;;;;;;;;;;;;;;;;1002596;29;1104;-33
2022/01/25 03:18:06;;;;;;;;;;;;;;;;;;1007479;29;1005;-34
2022/01/25 03:18:41;;;;;;;;;;;;;;;;;;1007800;29;899;-33
2022/01/25 03:20:06;;;;;;;;;;;;;;;;;;1007381;29;926;-33
2022/01/25 03:20:50;;;;;;;;;;;;;;;;;;1007468;29;1096;-33
2022/01/25 03:21:58;;;;;;;;;;;;;;;;;;1007440;29;1024;-33
2022/01/25 03:22:56;;;;;;;;;;;;;;;;;;1007250;29;1067;-34
2022/01/25 03:23:29;;;;;;;;;;;;;;;;;;1007401;29;918;-33
2022/01/25 03:24:00;;;;;;;;;;;;;;;;;;1007572;29;922;-33
2022/01/25 03:24:30;;;;;;;;;;;;;;;;;;1007522;29;1075;-33
2022/01/25 03:25:00;;;;;;;;;;;;;;;;;;1007534;29;926;-34
2022/01/25 03:25:31;;;;;;;;;;;;;;;;;;1007703;29;847;-34
2022/01/25 03:26:01;;;;;;;;;;;;;;;;;;1007360;29;821;-34
2022/01/25 03:26:33;;;;;;;;;;;;;;;;;;1007580;29;974;-33
2022/01/25 03:27:03;;;;;;;;;;;;;;;;;;1007619;29;978;-33
2022/01/25 03:27:34;;;;;;;;;;;;;;;;;;1007398;29;883;-34
2022/01/25 03:28:04;;;;;;;;;;;;;;;;;;1007798;29;828;-33
2022/01/25 03:28:34;;;;;;;;;;;;;;;;;;1007287;29;899;-33
2022/01/25 03:29:05;;;;;;;;;;;;;;;;;;1003593;29;1100;-33
2022/01/25 03:29:35;;;;;;;;;;;;;;;;;;1003301;29;904;-33
2022/01/25 03:30:06;;;;;;;;;;;;;;;;;;1003312;29;1138;-34
2022/01/25 03:30:36;;;;;;;;;;;;;;;;;;1003418;29;990;-33
2022/01/25 03:31:06;;;;;;;;;;;;;;;;;;1007521;29;859;-33
2022/01/25 03:31:37;;;;;;;;;;;;;;;;;;1007596;29;989;-34
2022/01/25 03:32:07;;;;;;;;;;;;;;;;;;1007628;29;875;-33
2022/01/25 03:32:38;;;;;;;;;;;;;;;;;;1007251;29;938;-34
2022/01/25 03:33:08;;;;;;;;;;;;;;;;;;1007733;29;923;-33
2022/01/25 03:33:39;;;;;;;;;;;;;;;;;;1006975;29;997;-33
2022/01/25 03:34:09;;;;;;;;;;;;;;;;;;1007282;29;1008;-33
2022/01/25 03:34:39;;;;;;;;;;;;;;;;;;1007092;29;1008;-33
2022/01/25 03:35:09;;;;;;;;;;;;;;;;;;1007215;29;797;-33
2022/01/25 03:35:40;;;;;;;;;;;;;;;;;;1007654;29;1016;-33
2022/01/25 03:36:10;;;;;;;;;;;;;;;;;;1007392;29;1422;-33
2022/01/25 03:36:42;;;;;;;;;;;;;;;;;;1007401;29;880;-34
2022/01/25 03:37:12;;;;;;;;;;;;;;;;;;1007593;29;961;-34
2022/01/25 03:37:42;;;;;;;;;;;;;;;;;;1007553;29;1037;-33
2022/01/25 03:38:13;;;;;;;;;;;;;;;;;;1007567;29;1276;-33
2022/01/25 03:38:43;;;;;;;;;;;;;;;;;;1007506;29;867;-33
2022/01/25 03:39:14;;;;;;;;;;;;;;;;;;1007549;29;994;-33
2022/01/25 03:39:44;;;;;;;;;;;;;;;;;;1007465;29;931;-34
2022/01/25 03:40:15;;;;;;;;;;;;;;;;;;1007413;29;903;-33
2022/01/25 03:40:46;;;;;;;;;;;;;;;;;;1007600;29;914;-33
2022/01/25 03:41:16;;;;;;;;;;;;;;;;;;1007509;29;891;-32
2022/01/25 03:41:46;;;;;;;;;;;;;;;;;;1007496;29;1052;-32
2022/01/25 03:42:18;;;;;;;;;;;;;;;;;;1007332;29;1919;-33
2022/01/25 03:42:49;;;;;;;;;;;;;;;;;;1007555;29;879;-33
2022/01/25 03:43:19;;;;;;;;;;;;;;;;;;1007520;29;972;-33
2022/01/25 03:43:55;;;;;;;;;;;;;;;;;;1007463;29;1585;-33
2022/01/25 03:44:25;;;;;;;;;;;;;;;;;;1007566;29;978;-33
2022/01/25 03:44:57;;;;;;;;;;;;;;;;;;1007423;29;993;-32
2022/01/25 03:45:31;;;;;;;;;;;;;;;;;;1007443;29;814;-32
2022/01/25 03:46:15;;;;;;;;;;;;;;;;;;1007506;29;942;-33
2022/01/25 03:47:29;;;;;;;;;;;;;;;;;;1007292;29;1005;-33
2022/01/25 03:50:20;;;;;;;;;;;;;;;;;;1007367;29;969;-33
2022/01/25 03:50:51;;;;;;;;;;;;;;;;;;1007416;29;926;-33
2022/01/25 03:51:21;;;;;;;;;;;;;;;;;;1007443;29;962;-33
2022/01/25 03:51:52;;;;;;;;;;;;;;;;;;1007614;29;958;-33
2022/01/25 03:52:32;;;;;;;;;;;;;;;;;;1007200;29;907;-34
2022/01/25 03:53:03;;;;;;;;;;;;;;;;;;1007583;29;926;-33
2022/01/25 03:53:33;;;;;;;;;;;;;;;;;;1007414;29;918;-33
2022/01/25 03:54:04;;;;;;;;;;;;;;;;;;1007425;29;950;-33
2022/01/25 03:54:34;;;;;;;;;;;;;;;;;;1007556;29;941;-33
2022/01/25 03:55:05;;;;;;;;;;;;;;;;;;1007421;29;958;-33
2022/01/25 03:55:36;;;;;;;;;;;;;;;;;;1007396;29;975;-33
2022/01/25 03:56:07;;;;;;;;;;;;;;;;;;1007530;29;985;-32
2022/01/25 03:56:37;;;;;;;;;;;;;;;;;;1007439;29;1102;-33
2022/01/25 03:57:08;;;;;;;;;;;;;;;;;;1007664;29;927;-33
2022/01/25 03:57:38;;;;;;;;;;;;;;;;;;1007285;29;918;-33
2022/01/25 03:58:09;;;;;;;;;;;;;;;;;;1007510;29;927;-33
2022/01/25 03:58:39;;;;;;;;;;;;;;;;;;1007373;29;911;-33
2022/01/25 03:59:09;;;;;;;;;;;;;;;;;;1010847;29;1042;-33
2022/01/25 03:59:40;;;;;;;;;;;;;;;;;;1010977;29;1009;-33
2022/01/25 04:00:11;;;;;;;;;;;;;;;;;;1010792;29;954;-33
2022/01/25 04:00:42;;;;;;;;;;;;;;;;;;1010986;29;705;-33
2022/01/25 04:01:13;;;;;;;;;;;;;;;;;;1007475;29;915;-33
2022/01/25 04:01:43;;;;;;;;;;;;;;;;;;1007368;29;994;-33
2022/01/25 04:02:13;;;;;;;;;;;;;;;;;;1007404;29;1915;-33
2022/01/25 04:03:03;;;;;;;;;;;;;;;;;;1007200;29;903;-34
2022/01/25 04:03:40;;;;;;;;;;;;;;;;;;1007434;29;899;-33
2022/01/25 04:04:14;;;;;;;;;;;;;;;;;;1007284;29;906;-34
2022/01/25 04:04:46;;;;;;;;;;;;;;;;;;1007644;29;1040;-33
2022/01/25 04:05:22;;;;;;;;;;;;;;;;;;1007001;29;967;-33
2022/01/25 04:05:54;;;;;;;;;;;;;;;;;;1006980;29;959;-33
2022/01/25 04:06:25;;;;;;;;;;;;;;;;;;1007211;29;879;-34
2022/01/25 04:06:55;;;;;;;;;;;;;;;;;;1007031;29;939;-33
2022/01/25 04:07:44;;;;;;;;;;;;;;;;;;1007470;29;1141;-33
2022/01/25 04:08:15;;;;;;;;;;;;;;;;;;1007302;29;1115;-33
2022/01/25 04:08:45;;;;;;;;;;;;;;;;;;1007430;29;994;-33
2022/01/25 04:09:16;;;;;;;;;;;;;;;;;;1007353;29;836;-32
2022/01/25 04:09:46;;;;;;;;;;;;;;;;;;1007515;29;993;-33
2022/01/25 04:10:18;;;;;;;;;;;;;;;;;;1007188;29;926;-33
2022/01/25 04:10:48;;;;;;;;;;;;;;;;;;1007429;29;1067;-33
2022/01/25 04:11:18;;;;;;;;;;;;;;;;;;1007445;29;910;-33
2022/01/25 04:11:49;;;;;;;;;;;;;;;;;;1007324;29;938;-33
2022/01/25 04:12:19;;;;;;;;;;;;;;;;;;1006932;29;937;-33
2022/01/25 04:12:49;;;;;;;;;;;;;;;;;;1007090;29;914;-34
2022/01/25 04:13:20;;;;;;;;;;;;;;;;;;1007000;29;1032;-33
2022/01/25 04:13:52;;;;;;;;;;;;;;;;;;1007064;29;843;-33
2022/01/25 04:14:23;;;;;;;;;;;;;;;;;;1007367;29;956;-33
2022/01/25 04:14:53;;;;;;;;;;;;;;;;;;1007482;29;1025;-33
2022/01/25 04:15:23;;;;;;;;;;;;;;;;;;1007422;29;946;-33
2022/01/25 04:15:57;;;;;;;;;;;;;;;;;;1007375;29;910;-34
2022/01/25 04:16:35;;;;;;;;;;;;;;;;;;1007352;29;938;-33
2022/01/25 04:17:09;;;;;;;;;;;;;;;;;;1007321;29;884;-34
2022/01/25 04:17:43;;;;;;;;;;;;;;;;;;1007329;29;953;-33
2022/01/25 04:19:32;;;;;;;;;;;;;;;;;;1007148;29;853;-33
2022/01/25 04:19:43;;;;;;;;;;;;;;;;;;1001689;29;1012;-34
2022/01/25 04:20:19;;;;;;;;;;;;;;;;;;1007230;29;958;-33
2022/01/25 04:21:12;;;;;;;;;;;;;;;;;;1007415;29;1040;-33
2022/01/25 04:24:43;;;;;;;;;;;;;;;;;;1007557;29;937;-34
2022/01/25 04:25:14;;;;;;;;;;;;;;;;;;1007465;29;981;-33
2022/01/25 04:25:44;;;;;;;;;;;;;;;;;;1007310;29;929;-34
2022/01/25 04:26:14;;;;;;;;;;;;;;;;;;1007301;29;1049;-33
2022/01/25 04:26:44;;;;;;;;;;;;;;;;;;1007420;29;998;-34
2022/01/25 04:27:15;;;;;;;;;;;;;;;;;;1007317;29;859;-35
2022/01/25 04:27:45;;;;;;;;;;;;;;;;;;1003210;29;1157;-35
2022/01/25 04:28:16;;;;;;;;;;;;;;;;;;1003138;29;864;-34
2022/01/25 04:28:46;;;;;;;;;;;;;;;;;;1003174;29;993;-33
2022/01/25 04:29:17;;;;;;;;;;;;;;;;;;1003180;29;963;-33
2022/01/25 04:29:47;;;;;;;;;;;;;;;;;;1007222;29;972;-33
2022/01/25 04:30:18;;;;;;;;;;;;;;;;;;1007381;29;1180;-34
2022/01/25 04:30:48;;;;;;;;;;;;;;;;;;1007273;29;884;-34
2022/01/25 04:31:19;;;;;;;;;;;;;;;;;;1007294;29;900;-34
2022/01/25 04:31:50;;;;;;;;;;;;;;;;;;1007304;29;950;-33
2022/01/25 04:32:30;;;;;;;;;;;;;;;;;;1007190;29;1292;-33
2022/01/25 04:33:04;;;;;;;;;;;;;;;;;;1007210;29;1072;-33
2022/01/25 04:33:44;;;;;;;;;;;;;;;;;;1006896;29;890;-34
2022/01/25 04:49:29;;;;;;;;;;;;;;;;;;1007314;29;821;-33
2022/01/25 04:49:59;;;;;;;;;;;;;;;;;;1007160;29;938;-33
2022/01/25 04:50:52;;;;;;;;;;;;;;;;;;1007293;29;1016;-33
2022/01/25 04:51:38;;;;;;;;;;;;;;;;;;1007190;29;1166;-33
2022/01/25 04:52:13;;;;;;;;;;;;;;;;;;1007197;29;982;-33
2022/01/25 04:52:55;;;;;;;;;;;;;;;;;;1010604;29;825;-33
2022/01/25 04:53:40;;;;;;;;;;;;;;;;;;1007072;29;966;-33
2022/01/25 04:54:26;;;;;;;;;;;;;;;;;;1006862;29;1102;-34
2022/01/25 04:55:09;;;;;;;;;;;;;;;;;;1004780;29;1056;-33
2022/01/25 04:55:54;;;;;;;;;;;;;;;;;;1010718;29;1033;-33
2022/01/25 04:56:35;;;;;;;;;;;;;;;;;;1010831;29;1073;-33
2022/01/25 04:57:23;;;;;;;;;;;;;;;;;;1009684;29;895;-33
2022/01/25 04:58:04;;;;;;;;;;;;;;;;;;1007054;29;943;-33
2022/01/25 04:58:46;;;;;;;;;;;;;;;;;;1007076;29;1072;-33
2022/01/25 04:59:27;;;;;;;;;;;;;;;;;;1007388;29;1045;-33
2022/01/25 05:00:10;;;;;;;;;;;;;;;;;;1007140;29;1004;-33
2022/01/25 05:00:40;;;;;;;;;;;;;;;;;;1007092;29;921;-34
2022/01/25 05:01:11;;;;;;;;;;;;;;;;;;1007279;29;827;-33
2022/01/25 05:01:42;;;;;;;;;;;;;;;;;;1006910;29;938;-33
2022/01/25 05:03:56;;;;;;;;;;;;;;;;;;995248;29;1030;-33
2022/01/25 05:04:31;;;;;;;;;;;;;;;;;;1007492;29;906;-33
2022/01/25 05:05:09;;;;;;;;;;;;;;;;;;1007099;29;1032;-33
2022/01/25 05:06:27;;;;;;;;;;;;;;;;;;1007215;29;879;-33
2022/01/25 05:06:32;;;;;;;;;;;;;;;;;;1003171;29;1341;-34
2022/01/25 05:07:14;;;;;;;;;;;;;;;;;;1007205;29;1085;-33
2022/01/25 05:07:54;;;;;;;;;;;;;;;;;;1007367;29;1067;-33
2022/01/25 05:09:07;;;;;;;;;;;;;;;;;;1006963;29;961;-33
2022/01/25 05:09:39;;;;;;;;;;;;;;;;;;1007303;29;966;-33
2022/01/25 05:10:10;;;;;;;;;;;;;;;;;;1007061;29;1297;-34
2022/01/25 05:10:49;;;;;;;;;;;;;;;;;;1007154;29;910;-33
2022/01/25 05:11:33;;;;;;;;;;;;;;;;;;1007037;29;906;-33
2022/01/25 05:12:04;;;;;;;;;;;;;;;;;;1007298;29;1009;-33
2022/01/25 05:12:50;;;;;;;;;;;;;;;;;;1007019;29;938;-33
2022/01/25 05:14:47;;;;;;;;;;;;;;;;;;1007348;29;1007;-33
2022/01/25 05:15:23;;;;;;;;;;;;;;;;;;1007176;29;974;-33
2022/01/25 05:16:14;;;;;;;;;;;;;;;;;;1007083;29;891;-33
2022/01/25 05:16:50;;;;;;;;;;;;;;;;;;1007102;29;894;-33
2022/01/25 05:17:30;;;;;;;;;;;;;;;;;;1007071;29;1022;-33
2022/01/25 05:18:16;;;;;;;;;;;;;;;;;;1007105;29;907;-33
2022/01/25 05:18:50;;;;;;;;;;;;;;;;;;1011015;29;1075;-33
2022/01/25 05:19:35;;;;;;;;;;;;;;;;;;1010322;29;1309;-33
2022/01/25 05:22:34;;;;;;;;;;;;;;;;;;1006865;29;1218;-33
2022/01/25 05:23:04;;;;;;;;;;;;;;;;;;1007311;29;1049;-33
2022/01/25 05:23:35;;;;;;;;;;;;;;;;;;1006980;29;907;-32
2022/01/25 05:24:05;;;;;;;;;;;;;;;;;;1007216;29;1068;-33
2022/01/25 05:24:37;;;;;;;;;;;;;;;;;;1007072;29;885;-33
2022/01/25 05:25:08;;;;;;;;;;;;;;;;;;1007141;29;868;-33